Free Trial

Taylor Devices (TAYD) Institutional Ownership

Taylor Devices logo
$55.30 +2.14 (+4.03%)
As of 04:00 PM Eastern

Institutional Ownership Changes (13F Filings) for Taylor Devices (NASDAQ:TAYD)

Current
Institutional Ownership
Percentage
17.62%
Number of
Institutional Buyers
(last 12 months)
32
Total
Institutional Inflows
(last 12 months)
$15.10M
Number of
Institutional Sellers
(last 12 months)
11
Total
Institutional Outflows
(last 12 months)
$16.52M
Get TAYD Insider Trade Alerts

Want to know when executives and insiders are buying or selling Taylor Devices stock? Sign up for InsiderTrades.com's daily newsletter to get the latest insider transactions delivered to your inbox daily.

SMS is currently available in Australia, Belgium, Canada, France, Germany, Ireland, Italy, New Zealand, the Netherlands, Singapore, South Africa, Spain, Switzerland, the United Kingdom, and the United States. By entering your phone number and clicking the sign-up button, you agree to receive periodic text messages from MarketBeat at the phone number you submitted, including texts that may be sent using an automatic telephone dialing system. Message and data rates may apply. Message frequency will vary. Messages will consist of stock alerts, news stories, and partner advertisements/offers. Consent is not a condition of the purchase of any goods or services. Text HELP for help/customer support. Unsubscribe at any time by replying "STOP" to any text message that you receive from MarketBeat or by visiting our mailing preferences page. Read our full terms of service and privacy policy.
Skip Chart & View Institutional Buying and Selling Data

TAYD Institutional Buying and Selling by Quarter

Taylor Devices Major Shareholders & Ownership History

Reporting DateMajor Shareholder NameShares HeldMarket Value% of PortfolioQuarterly Change in SharesOwnership in CompanyDetails
5/5/2026Hillsdale Investment Management Inc.4,400$251K0.0%N/A0.137%
4/22/2026 Janney Montgomery Scott LLC109,775$6.26M0.0%-8.1%3.409%
4/20/2026 Ritholtz Wealth Management12,550$715K0.0%+96.9%0.390%
2/18/2026Millennium Management LLC5,881$344K0.0%-47.9%0.187%
2/18/2026683 Capital Management LLC10,371$606K0.0%N/A0.329%
2/17/2026Elkhorn Partners Limited Partnership1,500$88K0.1%-11.8%0.048%
2/17/2026Royal Bank of Canada740$43K0.0%+68.2%0.023%
2/16/2026Barclays PLC3,533$207K0.0%+621.0%0.112%
2/13/2026Martin & Co. Inc. TN45,382$2.65M0.5%+64.8%1.441%
2/13/2026Wells Fargo & Company MN4,200$246K0.0%-32.3%0.133%
2/12/2026Jane Street Group LLC11,113$650K0.0%N/A0.353%
2/12/2026Renaissance Technologies LLC44,162$2.58M0.0%+1.6%1.402%
2/12/2026Dimensional Fund Advisors LP69,543$4.07M0.0%+0.3%2.208%
2/12/2026Informed Momentum Co LLC5,203$304K0.0%N/A0.165%
2/11/2026 Janney Montgomery Scott LLC119,457$6.98M0.0%-2.6%3.792%
2/11/2026LPL Financial LLC5,539$324K0.0%+8.3%0.176%
2/11/2026O Shaughnessy Asset Management LLC9,324$545K0.0%+66.7%0.296%
2/9/2026Geode Capital Management LLC35,509$2.08M0.0%+0.7%1.127%
1/23/2026 Ritholtz Wealth Management6,374$373K0.0%N/A0.202%
1/14/2026 Johnson Bixby & Associates LLC4,000$234K0.0%N/A0.127%
11/17/2025Perritt Capital Management Inc7,000$343K0.2%-97.3%0.222%
11/17/2025Susquehanna International Group LLP15,131$742K0.0%N/A0.481%
11/17/2025Qube Research & Technologies Ltd4,361$214K0.0%N/A0.139%
11/17/2025Punch & Associates Investment Management Inc.51,325$2.52M0.1%+2.7%1.630%
11/17/2025Millennium Management LLC11,286$554K0.0%-41.1%0.359%
11/17/2025Citadel Advisors LLC6,827$335K0.0%N/A0.217%
11/17/2025Bank of America Corp DE6,585$323K0.0%+205.9%0.209%
11/14/2025Two Sigma Investments LP4,184$205K0.0%N/A0.133%
11/13/2025Arrowstreet Capital Limited Partnership25,608$1.26M0.0%+20.2%0.813%
11/12/2025Dimensional Fund Advisors LP69,326$3.40M0.0%+1.7%2.202%
11/7/2025Martin & Co. Inc. TN27,536$1.35M0.2%+46.3%0.875%
11/7/2025GSA Capital Partners LLP5,962$292K0.0%N/A0.189%
11/7/2025Vanguard Group Inc.151,867$7.45M0.0%+2.1%4.824%
8/15/2025Tower Research Capital LLC TRC 1,014$44K0.0%+253.3%0.032%
8/15/2025Elkhorn Partners Limited Partnership2,000$87K0.1%-14.9%0.064%
8/15/2025BNP Paribas Financial Markets1,267$55K0.0%-38.2%0.040%
8/15/2025Brevan Howard Capital Management LP5,663$246K0.0%N/A0.180%
8/15/2025Bank of America Corp DE2,153$93K0.0%+16.3%0.069%
8/15/2025Ameriprise Financial Inc.100,480$4.36M0.0%N/A3.200%
8/14/2025RBF Capital LLC25,000$1.09M0.1%N/A0.796%
8/13/2025First Trust Advisors LP10,127$440K0.0%+4.1%0.323%
8/13/2025Arrowstreet Capital Limited Partnership21,300$924K0.0%+29.8%0.679%
8/13/2025De Lisle Partners LLP42,876$1.88M0.3%+1.4%1.367%
8/13/2025Martin & Co. Inc. TN18,819$817K0.2%N/A0.600%
8/12/2025American Century Companies Inc.37,354$1.62M0.0%-11.6%1.190%
8/8/2025Geode Capital Management LLC35,325$1.53M0.0%-49.6%1.125%
8/1/2025 Y Intercept Hong Kong Ltd7,012$304K0.0%N/A0.223%
7/28/2025 Ritholtz Wealth Management5,749$250K0.0%-11.7%0.183%
7/28/2025 Courier Capital LLC53,221$2.31M0.1%+10.4%1.697%
7/17/2025 Janney Montgomery Scott LLC123,630$5.37M0.0%-0.7%3.937%
6/27/2025Goldman Sachs Group Inc.7,411$239K0.0%-41.9%0.236%
5/29/2025Rhumbline Advisers2,357$76K0.0%+24.8%0.075%
5/16/2025Goldman Sachs Group Inc.7,411$239K0.0%-41.9%0.236%
5/16/2025Punch & Associates Investment Management Inc.48,864$1.58M0.1%-2.3%1.558%
5/13/2025American Century Companies Inc.42,232$1.36M0.0%-17.6%1.346%
5/8/2025De Lisle Partners LLP42,276$1.37M0.2%+60.6%1.348%
4/29/2025Bank of New York Mellon Corp6,585$212K0.0%N/A0.210%
4/17/2025Janney Montgomery Scott LLC124,515$4.02M0.0%-1.2%3.969%
4/17/2025Ritholtz Wealth Management6,513$210K0.0%-33.1%0.208%
4/14/2025Courier Capital LLC48,221$1.56M0.1%+1.0%1.537%
4/8/2025Rhumbline Advisers2,357$76K0.0%+24.8%0.075%
4/7/2025GAMMA Investing LLC1,000$31K0.0%+3,746.2%0.032%
2/25/2025B. Riley Wealth Advisors Inc.4,990$208K0.0%-69.1%0.159%
2/17/2025Bank of America Corp DE2,800$117K0.0%+57.1%0.089%
2/14/2025Northern Trust Corp27,587$1.15M0.0%+16.8%0.879%
2/14/2025Dimensional Fund Advisors LP45,772$1.91M0.0%+28.8%1.458%
2/14/2025First Trust Advisors LP9,872$411K0.0%-9.9%0.314%
2/13/2025Barclays PLC4,588$191K0.0%+33.9%0.146%
2/13/2025Renaissance Technologies LLC48,462$2.02M0.0%+5.2%1.543%
2/13/2025Wells Fargo & Company MN4,754$198K0.0%+80.6%0.151%
2/12/2025Geode Capital Management LLC67,425$2.81M0.0%+9.1%2.147%
2/12/2025O Shaughnessy Asset Management LLC19,729$821K0.0%-32.1%0.628%
2/12/2025Arrowstreet Capital Limited Partnership24,505$1.02M0.0%+23.7%0.780%
2/12/2025JPMorgan Chase & Co.7,010$292K0.0%+577.9%0.223%
2/11/2025American Century Companies Inc.51,277$2.13M0.0%-3.6%1.633%
2/6/2025Charles Schwab Investment Management Inc.8,964$373K0.0%+18.0%0.285%
1/17/2025Janney Montgomery Scott LLC126,027$5.25M0.0%-6.6%4.014%
1/15/2025Ritholtz Wealth Management9,730$405K0.0%-34.2%0.310%
1/13/2025Courier Capital LLC47,721$1.99M0.1%+19.3%1.522%
12/13/2024B. Riley Wealth Advisors Inc.16,146$798K0.0%+33.0%0.518%
11/19/2024Barclays PLC3,426$172K0.0%+325.6%0.110%
11/16/2024Geode Capital Management LLC61,814$3.09M0.0%+6.2%1.981%
11/15/2024Barclays PLC3,426$172K0.0%+325.6%0.110%
11/15/2024State Street Corp35,532$1.77M0.0%+17.0%1.139%
11/14/2024Scalar Gauge Management LLC13,644$681K0.4%N/A0.437%
11/14/2024MetLife Investment Management LLC1,408$70K0.0%N/A0.045%
11/13/2024BNP Paribas Financial Markets3,096$155K0.0%+261.3%0.099%
11/13/2024FMR LLC1,796$90K0.0%+1,138.6%0.058%
10/29/2024Janney Montgomery Scott LLC134,981$6.74M0.0%+0.6%3.834%
10/10/2024Ritholtz Wealth Management14,781$738K0.0%+60.3%0.474%
8/19/2024B. Riley Wealth Advisors Inc.12,136$546K0.0%N/A0.345%
8/12/2024Elkhorn Partners Limited Partnership4,300$193K0.1%-46.9%0.122%
8/9/2024Renaissance Technologies LLC46,362$2.09M0.0%-26.5%1.317%
8/9/2024Dimensional Fund Advisors LP32,290$1.45M0.0%+22.3%0.917%
8/8/2024Perritt Capital Management Inc6,500$292K0.2%-31.4%0.185%
8/8/2024American Century Companies Inc.26,813$1.21M0.0%N/A0.762%
8/6/2024LSV Asset Management8,149$367K0.0%+239.5%0.232%
8/1/2024Rhumbline Advisers1,911$86K0.0%N/A0.054%
8/1/2024Ritholtz Wealth Management9,220$415K0.0%+123.9%0.262%
7/26/2024Bank of New York Mellon Corp6,349$286K0.0%N/A0.180%


TAYD Institutional Ownership - Frequently Asked Questions

Who are the largest shareholders of TAYD shares?

During the previous two years, 53 institutional investors and hedge funds held shares of Taylor Devices. The most heavily invested institutionals were Vanguard Group Inc. ($7.45M), Janney Montgomery Scott LLC ($6.26M), Ameriprise Financial Inc. ($4.36M), Dimensional Fund Advisors LP ($4.07M), Martin & Co. Inc. TN ($2.65M), Renaissance Technologies LLC ($2.58M), and Punch & Associates Investment Management Inc. ($2.52M).Learn more on Taylor Devices' institutional investors.

What percentage of Taylor Devices' stock is owned by institutional investors?

17.62% of Taylor Devices' stock is owned by institutional investors. Learn more on TAYD's institutional investor holdings.

Which institutional investors have been buying Taylor Devices' stock?

Of the 49 institutional investors that purchased Taylor Devices' stock in the last 24 months, the following investors and hedge funds have bought the highest volume of shares: Ameriprise Financial Inc. ($100.48K), Martin & Co. Inc. TN ($45.38K), American Century Companies Inc. ($26.81K), RBF Capital LLC ($25K), Ritholtz Wealth Management ($23.21K), Courier Capital LLC ($18.22K), and Dimensional Fund Advisors LP ($17.48K).

How much institutional buying is happening at Taylor Devices?

Institutional investors have bought a total of 318,986 shares in the last 24 months. This purchase volume represents approximately $15.10M in transactions.

Which of Taylor Devices' major shareholders have been selling company stock?

Of the 11 institutional investors that sold Taylor Devices' stock in the last 24 months, the following investors and hedge funds have sold the highest volume of shares: Perritt Capital Management Inc ($253.40K), Geode Capital Management LLC ($34.81K), American Century Companies Inc. ($13.92K), Janney Montgomery Scott LLC ($13.73K), Millennium Management LLC ($13.29K), Goldman Sachs Group Inc. ($10.67K), and Wells Fargo & Company MN ($2K).

How much institutional selling is happening at Taylor Devices?

Institutional investors have sold a total of 345,061 shares in the last 24 months. This volume of shares sold represents approximately $16.52M in transactions.



This page (NASDAQ:TAYD) was last updated on 5/5/2026 by MarketBeat.com Staff.
From Our Partners